Hovedside
METAR-TAF:

METAR-TAF

Lufthavner :

Örnsköldsvik, Sverige

Örnsköldsvik lufthavn

breddegrad: 63-24N, lengdegrad: 018-58E, høyde over havet: 103 m

Gjeldene værobservasjon

Denne rapporten ble laget for 32 minutter siden, klokken 20:20 UTC
Vind 12 kt fra Vest-nordvest
Temperatur 3°C
Luftfuktighet 65%
Trykk 1011 hPa
Sikt 10 km eller mer

METAR: ESNO 262020Z AUTO 30012KT 9999 NCD 03/M03 Q1011

Tid: 22:52 (20:52 UTC)

Varsel

Denne rapporten ble laget for 6 timer og 22 minutter siden, klokken 14:30 UTC
Varsel gyldig fra 26. klokken 15 UTC til 26. klokken 19 UTC
Vind 24 kt fra Vest-nordvest med vindkast opp mot 36 kt
Sikt 10 km eller mer
ingen skyer under 1500 m og ingen bygeskyer

TAF: ESNO 261430Z 2615/2619 30024G36KT CAVOK

Værobservasjoner og værvarsel for over 4000 flyplasser (METAR- og TAF-rapporter).

Tilgjengelige stasjoner er representert av de røde og gule prikkene på kartet.

Hold musepekeren over prikken for å se navnet på stasjonen.

Klikk så for å se værobservasjoner og -varsler.

For å forandre kartet kan du klikke på den grønne knappen med svart kryss for å zoome inn, på den grønne knappen med strek for å zoome ut, eller på de grønne pilene for å se tilstøtende kart.


METAR-TAF: